Accueil
METAR-TAF:

METAR-TAF

Aéroports :

Quaqtaq, Québec, Canada

latitude: 61-03N, longitude: 069-38W, altitude: 30 m

Observation

Le bulletin a été fait il y a 1 heure et 2 minutes, à 12:00 UTC
Vent 14 kt de nord avec des rafales jusqu'à 19 kt
Température -2°C
Humidité 86%
Pression 1017 hPa
Visibilité: 3.2 km
Quelques nuages à une hauteur de 1000 ft
Ciel couvert à une hauteur de 2700 ft
neige faible, Chasse-neige basse

METAR: CYHA 011200Z 35014G19KT 2SM -SN DRSN FEW010 OVC027 M02/M04 A3004 RMK SF2SC6 SN COV/MED PACK SLP176

Heure: 09:02 (13:02 UTC)


TAF: absent

Observations et prévisions météorologiques de plus de 4000 aéroports (messages METAR et TAF).

Les stations disponibles sont représentées par des disques jaunes et rouges sur la carte.

Passer la souris dessus pour voir le nom de la station.

Cliquer dessus pour voir les observations et prévisions météorologiques.

Pour changer de carte: cliquez sur les boutons verts avec une croix noire pour zoomer, sur le bouton vert avec un tiret pour effectuer un zoom arrière, ou sur les flèches vertes pour les cartes adjacentes.


METAR-TAF: